sensor_id;sensor_type;location;lat;lon;timestamp;P1;durP1;ratioP1;P2;durP2;ratioP2
27833;SDS011;15200;50.570;7.244;2022-09-17T00:00:46;2.65;;;1.20;;
27833;SDS011;15200;50.570;7.244;2022-09-17T00:03:13;6.33;;;1.30;;
27833;SDS011;15200;50.570;7.244;2022-09-17T00:05:40;8.85;;;1.30;;
27833;SDS011;15200;50.570;7.244;2022-09-17T00:08:09;4.47;;;1.62;;
27833;SDS011;15200;50.570;7.244;2022-09-17T00:10:38;4.75;;;1.17;;
27833;SDS011;15200;50.570;7.244;2022-09-17T00:13:07;4.75;;;1.65;;
27833;SDS011;15200;50.570;7.244;2022-09-17T00:15:41;5.62;;;1.10;;
27833;SDS011;15200;50.570;7.244;2022-09-17T00:18:08;5.75;;;1.37;;
27833;SDS011;15200;50.570;7.244;2022-09-17T00:20:37;6.70;;;1.57;;
27833;SDS011;15200;50.570;7.244;2022-09-17T00:23:04;3.52;;;1.37;;
27833;SDS011;15200;50.570;7.244;2022-09-17T00:25:31;4.70;;;1.20;;
27833;SDS011;15200;50.570;7.244;2022-09-17T00:27:58;7.40;;;1.62;;
27833;SDS011;15200;50.570;7.244;2022-09-17T00:30:26;4.42;;;1.30;;
27833;SDS011;15200;50.570;7.244;2022-09-17T00:32:53;6.20;;;1.30;;
27833;SDS011;15200;50.570;7.244;2022-09-17T00:35:26;3.62;;;1.37;;
27833;SDS011;15200;50.570;7.244;2022-09-17T00:37:53;1.85;;;1.05;;
27833;SDS011;15200;50.570;7.244;2022-09-17T00:40:21;6.37;;;1.50;;
27833;SDS011;15200;50.570;7.244;2022-09-17T00:42:48;3.67;;;1.15;;
27833;SDS011;15200;50.570;7.244;2022-09-17T00:45:18;6.15;;;1.50;;
27833;SDS011;15200;50.570;7.244;2022-09-17T00:47:51;8.00;;;1.32;;
27833;SDS011;15200;50.570;7.244;2022-09-17T00:50:23;3.67;;;1.30;;
27833;SDS011;15200;50.570;7.244;2022-09-17T00:52:50;3.77;;;1.30;;
27833;SDS011;15200;50.570;7.244;2022-09-17T00:55:38;5.58;;;1.25;;
27833;SDS011;15200;50.570;7.244;2022-09-17T00:58:07;4.62;;;1.40;;
27833;SDS011;15200;50.570;7.244;2022-09-17T01:00:34;3.45;;;1.47;;
27833;SDS011;15200;50.570;7.244;2022-09-17T01:03:02;4.75;;;1.25;;
27833;SDS011;15200;50.570;7.244;2022-09-17T01:05:41;3.92;;;1.30;;
27833;SDS011;15200;50.570;7.244;2022-09-17T01:08:04;6.45;;;1.35;;
27833;SDS011;15200;50.570;7.244;2022-09-17T01:10:35;6.80;;;1.55;;
27833;SDS011;15200;50.570;7.244;2022-09-17T01:13:08;2.98;;;1.20;;
27833;SDS011;15200;50.570;7.244;2022-09-17T01:15:38;5.67;;;1.57;;
27833;SDS011;15200;50.570;7.244;2022-09-17T01:18:17;5.33;;;1.30;;
27833;SDS011;15200;50.570;7.244;2022-09-17T01:26:16;4.37;;;1.42;;
27833;SDS011;15200;50.570;7.244;2022-09-17T01:28:43;5.40;;;1.40;;
27833;SDS011;15200;50.570;7.244;2022-09-17T01:31:26;3.77;;;1.40;;
27833;SDS011;15200;50.570;7.244;2022-09-17T01:34:07;5.40;;;1.30;;
27833;SDS011;15200;50.570;7.244;2022-09-17T01:39:04;4.08;;;1.10;;
27833;SDS011;15200;50.570;7.244;2022-09-17T01:41:32;5.78;;;1.32;;
27833;SDS011;15200;50.570;7.244;2022-09-17T01:44:06;3.90;;;1.50;;
27833;SDS011;15200;50.570;7.244;2022-09-17T01:46:48;9.78;;;1.82;;
27833;SDS011;15200;50.570;7.244;2022-09-17T01:49:11;6.65;;;1.87;;
27833;SDS011;15200;50.570;7.244;2022-09-17T01:51:40;6.30;;;1.40;;
27833;SDS011;15200;50.570;7.244;2022-09-17T01:54:16;4.47;;;1.20;;
27833;SDS011;15200;50.570;7.244;2022-09-17T01:56:40;5.97;;;1.70;;
27833;SDS011;15200;50.570;7.244;2022-09-17T01:59:26;5.58;;;1.32;;
27833;SDS011;15200;50.570;7.244;2022-09-17T02:02:01;3.00;;;1.17;;
27833;SDS011;15200;50.570;7.244;2022-09-17T02:04:28;3.92;;;1.35;;
27833;SDS011;15200;50.570;7.244;2022-09-17T02:06:57;4.15;;;0.95;;
27833;SDS011;15200;50.570;7.244;2022-09-17T02:09:32;4.42;;;1.45;;
27833;SDS011;15200;50.570;7.244;2022-09-17T02:11:56;4.85;;;1.55;;
27833;SDS011;15200;50.570;7.244;2022-09-17T02:14:27;6.12;;;1.30;;
27833;SDS011;15200;50.570;7.244;2022-09-17T02:17:02;6.20;;;1.52;;
27833;SDS011;15200;50.570;7.244;2022-09-17T02:19:29;5.65;;;1.35;;
27833;SDS011;15200;50.570;7.244;2022-09-17T02:22:00;6.40;;;1.87;;
27833;SDS011;15200;50.570;7.244;2022-09-17T02:24:34;5.87;;;1.25;;
27833;SDS011;15200;50.570;7.244;2022-09-17T02:27:02;7.45;;;1.20;;
27833;SDS011;15200;50.570;7.244;2022-09-17T02:29:34;7.58;;;1.60;;
27833;SDS011;15200;50.570;7.244;2022-09-17T02:32:03;4.05;;;2.00;;
27833;SDS011;15200;50.570;7.244;2022-09-17T02:34:30;7.45;;;1.47;;
27833;SDS011;15200;50.570;7.244;2022-09-17T02:36:57;7.92;;;2.05;;
27833;SDS011;15200;50.570;7.244;2022-09-17T02:39:25;4.42;;;1.35;;
27833;SDS011;15200;50.570;7.244;2022-09-17T02:42:11;3.67;;;1.22;;
27833;SDS011;15200;50.570;7.244;2022-09-17T02:44:38;8.98;;;1.82;;
27833;SDS011;15200;50.570;7.244;2022-09-17T02:55:06;6.10;;;1.98;;
27833;SDS011;15200;50.570;7.244;2022-09-17T03:02:31;9.85;;;2.20;;
27833;SDS011;15200;50.570;7.244;2022-09-17T03:04:58;8.00;;;2.30;;
27833;SDS011;15200;50.570;7.244;2022-09-17T03:07:26;7.37;;;1.60;;
27833;SDS011;15200;50.570;7.244;2022-09-17T03:09:54;6.55;;;1.80;;
27833;SDS011;15200;50.570;7.244;2022-09-17T03:12:21;6.97;;;2.37;;
27833;SDS011;15200;50.570;7.244;2022-09-17T03:14:50;7.20;;;1.60;;
27833;SDS011;15200;50.570;7.244;2022-09-17T03:17:17;5.45;;;1.67;;
27833;SDS011;15200;50.570;7.244;2022-09-17T03:19:44;8.28;;;1.70;;
27833;SDS011;15200;50.570;7.244;2022-09-17T03:22:12;7.60;;;1.82;;
27833;SDS011;15200;50.570;7.244;2022-09-17T03:24:39;6.80;;;1.80;;
27833;SDS011;15200;50.570;7.244;2022-09-17T03:27:06;9.48;;;1.90;;
27833;SDS011;15200;50.570;7.244;2022-09-17T03:29:33;7.80;;;1.70;;
27833;SDS011;15200;50.570;7.244;2022-09-17T03:32:01;4.50;;;1.70;;
27833;SDS011;15200;50.570;7.244;2022-09-17T03:34:28;6.78;;;1.90;;
27833;SDS011;15200;50.570;7.244;2022-09-17T03:36:55;3.83;;;1.47;;
27833;SDS011;15200;50.570;7.244;2022-09-17T03:39:23;6.17;;;1.67;;
27833;SDS011;15200;50.570;7.244;2022-09-17T03:41:50;9.48;;;1.67;;
27833;SDS011;15200;50.570;7.244;2022-09-17T03:44:17;6.12;;;1.90;;
27833;SDS011;15200;50.570;7.244;2022-09-17T03:46:46;9.18;;;1.77;;
27833;SDS011;15200;50.570;7.244;2022-09-17T03:49:13;4.55;;;1.42;;
27833;SDS011;15200;50.570;7.244;2022-09-17T03:51:41;8.53;;;1.52;;
27833;SDS011;15200;50.570;7.244;2022-09-17T03:54:08;7.78;;;1.65;;
27833;SDS011;15200;50.570;7.244;2022-09-17T03:56:35;7.67;;;1.35;;
27833;SDS011;15200;50.570;7.244;2022-09-17T03:59:03;9.70;;;1.67;;
27833;SDS011;15200;50.570;7.244;2022-09-17T04:01:30;7.15;;;1.50;;
27833;SDS011;15200;50.570;7.244;2022-09-17T04:03:57;6.60;;;1.62;;
27833;SDS011;15200;50.570;7.244;2022-09-17T04:06:25;5.62;;;1.35;;
27833;SDS011;15200;50.570;7.244;2022-09-17T04:08:52;8.83;;;1.75;;
27833;SDS011;15200;50.570;7.244;2022-09-17T04:11:19;6.78;;;1.25;;
27833;SDS011;15200;50.570;7.244;2022-09-17T04:13:47;8.60;;;1.52;;
27833;SDS011;15200;50.570;7.244;2022-09-17T04:16:14;8.18;;;2.30;;
27833;SDS011;15200;50.570;7.244;2022-09-17T04:18:41;9.23;;;1.60;;
27833;SDS011;15200;50.570;7.244;2022-09-17T04:21:09;3.90;;;1.30;;
27833;SDS011;15200;50.570;7.244;2022-09-17T04:23:37;5.47;;;1.98;;
27833;SDS011;15200;50.570;7.244;2022-09-17T04:26:04;8.80;;;1.67;;
27833;SDS011;15200;50.570;7.244;2022-09-17T04:28:32;6.37;;;1.55;;
27833;SDS011;15200;50.570;7.244;2022-09-17T04:30:59;6.40;;;1.25;;
27833;SDS011;15200;50.570;7.244;2022-09-17T04:33:26;6.42;;;1.65;;
27833;SDS011;15200;50.570;7.244;2022-09-17T04:35:54;8.20;;;2.02;;
27833;SDS011;15200;50.570;7.244;2022-09-17T04:38:21;7.22;;;2.02;;
27833;SDS011;15200;50.570;7.244;2022-09-17T04:40:48;8.35;;;1.90;;
27833;SDS011;15200;50.570;7.244;2022-09-17T04:43:16;10.13;;;1.67;;
27833;SDS011;15200;50.570;7.244;2022-09-17T04:45:45;10.30;;;1.92;;
27833;SDS011;15200;50.570;7.244;2022-09-17T04:48:12;12.65;;;1.50;;
27833;SDS011;15200;50.570;7.244;2022-09-17T04:50:40;10.30;;;1.65;;
27833;SDS011;15200;50.570;7.244;2022-09-17T04:53:07;10.72;;;2.27;;
27833;SDS011;15200;50.570;7.244;2022-09-17T04:55:34;4.85;;;1.50;;
27833;SDS011;15200;50.570;7.244;2022-09-17T04:58:02;9.65;;;1.62;;
27833;SDS011;15200;50.570;7.244;2022-09-17T05:00:29;8.73;;;1.50;;
27833;SDS011;15200;50.570;7.244;2022-09-17T05:02:57;8.25;;;1.90;;
27833;SDS011;15200;50.570;7.244;2022-09-17T05:05:24;7.85;;;1.72;;
27833;SDS011;15200;50.570;7.244;2022-09-17T05:07:51;8.28;;;1.95;;
27833;SDS011;15200;50.570;7.244;2022-09-17T05:10:20;8.08;;;1.87;;
27833;SDS011;15200;50.570;7.244;2022-09-17T05:12:51;7.97;;;1.67;;
27833;SDS011;15200;50.570;7.244;2022-09-17T05:15:19;5.55;;;1.70;;
27833;SDS011;15200;50.570;7.244;2022-09-17T05:17:46;5.03;;;1.40;;
27833;SDS011;15200;50.570;7.244;2022-09-17T05:20:14;10.60;;;2.15;;
27833;SDS011;15200;50.570;7.244;2022-09-17T05:22:50;9.83;;;1.80;;
27833;SDS011;15200;50.570;7.244;2022-09-17T05:25:14;9.58;;;1.65;;
27833;SDS011;15200;50.570;7.244;2022-09-17T05:27:42;8.43;;;1.60;;
27833;SDS011;15200;50.570;7.244;2022-09-17T05:30:09;6.28;;;1.80;;
27833;SDS011;15200;50.570;7.244;2022-09-17T05:32:37;10.93;;;1.80;;
27833;SDS011;15200;50.570;7.244;2022-09-17T05:35:06;9.23;;;1.62;;
27833;SDS011;15200;50.570;7.244;2022-09-17T05:37:33;10.75;;;1.90;;
27833;SDS011;15200;50.570;7.244;2022-09-17T05:40:01;6.62;;;1.50;;
27833;SDS011;15200;50.570;7.244;2022-09-17T05:42:28;8.58;;;1.72;;
27833;SDS011;15200;50.570;7.244;2022-09-17T05:44:56;6.28;;;1.17;;
27833;SDS011;15200;50.570;7.244;2022-09-17T05:47:23;15.45;;;1.70;;
27833;SDS011;15200;50.570;7.244;2022-09-17T05:49:51;5.65;;;1.10;;
27833;SDS011;15200;50.570;7.244;2022-09-17T05:52:19;6.97;;;1.40;;
27833;SDS011;15200;50.570;7.244;2022-09-17T05:54:46;7.42;;;2.20;;
27833;SDS011;15200;50.570;7.244;2022-09-17T05:57:13;14.10;;;1.87;;
27833;SDS011;15200;50.570;7.244;2022-09-17T05:59:41;9.13;;;1.60;;
27833;SDS011;15200;50.570;7.244;2022-09-17T06:02:10;9.13;;;1.40;;
27833;SDS011;15200;50.570;7.244;2022-09-17T06:04:38;4.15;;;1.70;;
27833;SDS011;15200;50.570;7.244;2022-09-17T06:07:05;10.78;;;1.77;;
27833;SDS011;15200;50.570;7.244;2022-09-17T06:09:34;4.05;;;1.50;;
27833;SDS011;15200;50.570;7.244;2022-09-17T06:12:04;5.47;;;1.55;;
27833;SDS011;15200;50.570;7.244;2022-09-17T06:14:31;7.30;;;1.70;;
27833;SDS011;15200;50.570;7.244;2022-09-17T06:16:58;8.23;;;1.85;;
27833;SDS011;15200;50.570;7.244;2022-09-17T06:19:26;9.30;;;1.30;;
27833;SDS011;15200;50.570;7.244;2022-09-17T06:21:54;7.15;;;1.40;;
27833;SDS011;15200;50.570;7.244;2022-09-17T06:24:21;5.62;;;1.32;;
27833;SDS011;15200;50.570;7.244;2022-09-17T06:26:50;7.35;;;1.40;;
27833;SDS011;15200;50.570;7.244;2022-09-17T06:29:17;7.15;;;1.20;;
27833;SDS011;15200;50.570;7.244;2022-09-17T06:31:46;7.10;;;1.37;;
27833;SDS011;15200;50.570;7.244;2022-09-17T06:34:13;9.23;;;1.65;;
27833;SDS011;15200;50.570;7.244;2022-09-17T06:36:40;7.25;;;1.70;;
27833;SDS011;15200;50.570;7.244;2022-09-17T06:39:08;4.53;;;1.00;;
27833;SDS011;15200;50.570;7.244;2022-09-17T06:41:37;7.40;;;1.65;;
27833;SDS011;15200;50.570;7.244;2022-09-17T06:44:04;8.90;;;1.55;;
27833;SDS011;15200;50.570;7.244;2022-09-17T06:46:32;6.60;;;1.40;;
27833;SDS011;15200;50.570;7.244;2022-09-17T06:48:59;8.55;;;1.40;;
27833;SDS011;15200;50.570;7.244;2022-09-17T06:51:26;10.03;;;1.55;;
27833;SDS011;15200;50.570;7.244;2022-09-17T06:53:54;7.83;;;1.40;;
27833;SDS011;15200;50.570;7.244;2022-09-17T06:56:21;7.45;;;1.65;;
27833;SDS011;15200;50.570;7.244;2022-09-17T06:58:48;5.58;;;1.40;;
27833;SDS011;15200;50.570;7.244;2022-09-17T07:01:15;9.25;;;1.50;;
27833;SDS011;15200;50.570;7.244;2022-09-17T07:03:43;7.00;;;1.10;;
27833;SDS011;15200;50.570;7.244;2022-09-17T07:06:10;10.00;;;1.47;;
27833;SDS011;15200;50.570;7.244;2022-09-17T07:08:38;9.28;;;1.50;;
27833;SDS011;15200;50.570;7.244;2022-09-17T07:11:05;5.03;;;1.35;;
27833;SDS011;15200;50.570;7.244;2022-09-17T07:13:33;5.12;;;1.50;;
27833;SDS011;15200;50.570;7.244;2022-09-17T07:16:01;5.00;;;1.40;;
27833;SDS011;15200;50.570;7.244;2022-09-17T07:18:29;8.70;;;1.45;;
27833;SDS011;15200;50.570;7.244;2022-09-17T07:20:57;9.38;;;2.15;;
27833;SDS011;15200;50.570;7.244;2022-09-17T07:23:30;9.33;;;1.10;;
27833;SDS011;15200;50.570;7.244;2022-09-17T07:25:54;4.78;;;1.00;;
27833;SDS011;15200;50.570;7.244;2022-09-17T07:28:22;5.33;;;1.02;;
27833;SDS011;15200;50.570;7.244;2022-09-17T07:30:50;6.58;;;1.35;;
27833;SDS011;15200;50.570;7.244;2022-09-17T07:33:19;6.42;;;1.60;;
27833;SDS011;15200;50.570;7.244;2022-09-17T07:35:55;5.47;;;1.50;;
27833;SDS011;15200;50.570;7.244;2022-09-17T07:38:23;10.90;;;1.70;;
27833;SDS011;15200;50.570;7.244;2022-09-17T07:40:57;7.05;;;1.30;;
27833;SDS011;15200;50.570;7.244;2022-09-17T07:43:25;4.20;;;1.07;;
27833;SDS011;15200;50.570;7.244;2022-09-17T07:45:52;5.12;;;1.17;;
27833;SDS011;15200;50.570;7.244;2022-09-17T07:48:20;3.77;;;0.85;;
27833;SDS011;15200;50.570;7.244;2022-09-17T07:50:48;7.90;;;1.47;;
27833;SDS011;15200;50.570;7.244;2022-09-17T07:53:15;4.87;;;1.17;;
27833;SDS011;15200;50.570;7.244;2022-09-17T07:55:49;7.17;;;1.37;;
27833;SDS011;15200;50.570;7.244;2022-09-17T07:58:11;8.13;;;1.37;;
27833;SDS011;15200;50.570;7.244;2022-09-17T08:00:39;9.83;;;1.55;;
27833;SDS011;15200;50.570;7.244;2022-09-17T08:03:06;11.70;;;1.62;;
27833;SDS011;15200;50.570;7.244;2022-09-17T08:05:33;7.42;;;1.25;;
27833;SDS011;15200;50.570;7.244;2022-09-17T08:08:01;7.70;;;1.35;;
27833;SDS011;15200;50.570;7.244;2022-09-17T08:10:29;5.42;;;1.30;;
27833;SDS011;15200;50.570;7.244;2022-09-17T08:12:56;5.90;;;1.27;;
27833;SDS011;15200;50.570;7.244;2022-09-17T08:15:24;6.12;;;1.40;;
27833;SDS011;15200;50.570;7.244;2022-09-17T08:17:52;7.10;;;1.30;;
27833;SDS011;15200;50.570;7.244;2022-09-17T08:20:19;8.70;;;1.67;;
27833;SDS011;15200;50.570;7.244;2022-09-17T08:22:47;6.30;;;1.47;;
27833;SDS011;15200;50.570;7.244;2022-09-17T08:25:14;6.75;;;1.22;;
27833;SDS011;15200;50.570;7.244;2022-09-17T08:27:41;6.45;;;1.47;;
27833;SDS011;15200;50.570;7.244;2022-09-17T08:30:09;5.30;;;1.27;;
27833;SDS011;15200;50.570;7.244;2022-09-17T08:32:37;9.93;;;1.57;;
27833;SDS011;15200;50.570;7.244;2022-09-17T08:35:04;9.48;;;1.37;;
27833;SDS011;15200;50.570;7.244;2022-09-17T08:37:32;8.28;;;1.40;;
27833;SDS011;15200;50.570;7.244;2022-09-17T08:40:00;11.22;;;1.40;;
27833;SDS011;15200;50.570;7.244;2022-09-17T08:42:30;5.80;;;1.25;;
27833;SDS011;15200;50.570;7.244;2022-09-17T08:44:57;8.60;;;1.25;;
27833;SDS011;15200;50.570;7.244;2022-09-17T08:47:29;9.73;;;1.47;;
27833;SDS011;15200;50.570;7.244;2022-09-17T08:49:59;7.92;;;1.42;;
27833;SDS011;15200;50.570;7.244;2022-09-17T08:55:19;7.67;;;1.12;;
27833;SDS011;15200;50.570;7.244;2022-09-17T08:57:47;5.70;;;1.40;;
27833;SDS011;15200;50.570;7.244;2022-09-17T09:00:14;6.15;;;1.27;;
27833;SDS011;15200;50.570;7.244;2022-09-17T09:02:47;6.72;;;1.47;;
27833;SDS011;15200;50.570;7.244;2022-09-17T09:05:12;9.60;;;1.12;;
27833;SDS011;15200;50.570;7.244;2022-09-17T09:07:45;3.72;;;1.27;;
27833;SDS011;15200;50.570;7.244;2022-09-17T09:12:48;4.05;;;1.10;;
27833;SDS011;15200;50.570;7.244;2022-09-17T09:15:20;8.78;;;1.70;;
27833;SDS011;15200;50.570;7.244;2022-09-17T09:17:46;6.70;;;1.12;;
27833;SDS011;15200;50.570;7.244;2022-09-17T09:20:15;5.50;;;1.15;;
27833;SDS011;15200;50.570;7.244;2022-09-17T09:25:17;5.15;;;1.42;;
27833;SDS011;15200;50.570;7.244;2022-09-17T09:27:46;7.67;;;1.02;;
27833;SDS011;15200;50.570;7.244;2022-09-17T09:30:13;5.47;;;1.10;;
27833;SDS011;15200;50.570;7.244;2022-09-17T09:35:22;5.37;;;1.00;;
27833;SDS011;15200;50.570;7.244;2022-09-17T09:37:52;8.13;;;1.32;;
27833;SDS011;15200;50.570;7.244;2022-09-17T09:40:36;5.10;;;1.40;;
27833;SDS011;15200;50.570;7.244;2022-09-17T09:43:10;6.35;;;1.10;;
27833;SDS011;15200;50.570;7.244;2022-09-17T09:45:36;6.12;;;1.22;;
27833;SDS011;15200;50.570;7.244;2022-09-17T09:48:14;4.42;;;1.00;;
27833;SDS011;15200;50.570;7.244;2022-09-17T09:58:35;3.90;;;1.00;;
27833;SDS011;15200;50.570;7.244;2022-09-17T10:01:13;3.45;;;0.82;;
27833;SDS011;15200;50.570;7.244;2022-09-17T10:03:42;6.70;;;1.47;;
27833;SDS011;15200;50.570;7.244;2022-09-17T10:06:11;6.95;;;1.85;;
27833;SDS011;15200;50.570;7.244;2022-09-17T10:08:40;4.65;;;1.35;;
27833;SDS011;15200;50.570;7.244;2022-09-17T10:13:39;6.92;;;1.20;;
27833;SDS011;15200;50.570;7.244;2022-09-17T10:16:19;2.50;;;0.80;;
27833;SDS011;15200;50.570;7.244;2022-09-17T10:18:48;5.55;;;1.12;;
27833;SDS011;15200;50.570;7.244;2022-09-17T10:21:30;7.22;;;0.98;;
27833;SDS011;15200;50.570;7.244;2022-09-17T10:23:51;3.33;;;1.20;;
27833;SDS011;15200;50.570;7.244;2022-09-17T10:26:20;5.50;;;1.02;;
27833;SDS011;15200;50.570;7.244;2022-09-17T10:28:51;6.08;;;0.85;;
27833;SDS011;15200;50.570;7.244;2022-09-17T10:31:45;5.50;;;0.98;;
27833;SDS011;15200;50.570;7.244;2022-09-17T10:34:20;3.47;;;0.88;;
27833;SDS011;15200;50.570;7.244;2022-09-17T10:36:48;2.05;;;0.80;;
27833;SDS011;15200;50.570;7.244;2022-09-17T10:41:53;4.95;;;1.07;;
27833;SDS011;15200;50.570;7.244;2022-09-17T10:44:21;2.52;;;0.78;;
27833;SDS011;15200;50.570;7.244;2022-09-17T10:46:50;5.65;;;0.90;;
27833;SDS011;15200;50.570;7.244;2022-09-17T10:49:33;3.45;;;1.00;;
27833;SDS011;15200;50.570;7.244;2022-09-17T10:52:05;7.37;;;1.42;;
27833;SDS011;15200;50.570;7.244;2022-09-17T10:54:43;5.78;;;1.27;;
27833;SDS011;15200;50.570;7.244;2022-09-17T10:57:09;3.80;;;0.90;;
27833;SDS011;15200;50.570;7.244;2022-09-17T10:59:47;5.72;;;0.88;;
27833;SDS011;15200;50.570;7.244;2022-09-17T11:04:53;4.00;;;0.98;;
27833;SDS011;15200;50.570;7.244;2022-09-17T11:12:24;7.72;;;1.10;;
27833;SDS011;15200;50.570;7.244;2022-09-17T11:23:29;2.80;;;0.85;;
27833;SDS011;15200;50.570;7.244;2022-09-17T11:25:58;2.00;;;0.47;;
27833;SDS011;15200;50.570;7.244;2022-09-17T11:31:17;2.83;;;0.62;;
27833;SDS011;15200;50.570;7.244;2022-09-17T11:33:45;2.90;;;0.40;;
27833;SDS011;15200;50.570;7.244;2022-09-17T11:36:12;1.67;;;0.70;;
27833;SDS011;15200;50.570;7.244;2022-09-17T11:41:15;1.42;;;0.50;;
27833;SDS011;15200;50.570;7.244;2022-09-17T11:43:48;1.10;;;0.50;;
27833;SDS011;15200;50.570;7.244;2022-09-17T11:46:16;3.05;;;0.60;;
27833;SDS011;15200;50.570;7.244;2022-09-17T11:48:51;5.92;;;0.70;;
27833;SDS011;15200;50.570;7.244;2022-09-17T11:51:33;1.67;;;0.45;;
27833;SDS011;15200;50.570;7.244;2022-09-17T11:59:03;5.05;;;0.80;;
27833;SDS011;15200;50.570;7.244;2022-09-17T12:01:33;3.98;;;0.88;;
27833;SDS011;15200;50.570;7.244;2022-09-17T12:04:18;1.95;;;0.50;;
27833;SDS011;15200;50.570;7.244;2022-09-17T12:06:45;4.60;;;0.70;;
27833;SDS011;15200;50.570;7.244;2022-09-17T12:09:16;3.50;;;0.90;;
27833;SDS011;15200;50.570;7.244;2022-09-17T12:17:11;2.92;;;0.95;;
27833;SDS011;15200;50.570;7.244;2022-09-17T12:19:39;2.83;;;0.78;;
27833;SDS011;15200;50.570;7.244;2022-09-17T12:22:11;7.10;;;0.90;;
27833;SDS011;15200;50.570;7.244;2022-09-17T12:24:41;3.55;;;1.10;;
27833;SDS011;15200;50.570;7.244;2022-09-17T12:27:16;7.72;;;0.93;;
27833;SDS011;15200;50.570;7.244;2022-09-17T12:34:51;2.65;;;0.70;;
27833;SDS011;15200;50.570;7.244;2022-09-17T12:37:18;8.48;;;0.98;;
27833;SDS011;15200;50.570;7.244;2022-09-17T12:39:51;1.72;;;0.60;;
27833;SDS011;15200;50.570;7.244;2022-09-17T12:45:13;1.50;;;0.65;;
27833;SDS011;15200;50.570;7.244;2022-09-17T12:47:48;2.98;;;1.00;;
27833;SDS011;15200;50.570;7.244;2022-09-17T12:53:05;4.10;;;0.88;;
27833;SDS011;15200;50.570;7.244;2022-09-17T12:58:16;6.95;;;0.70;;
27833;SDS011;15200;50.570;7.244;2022-09-17T13:00:44;4.60;;;0.82;;
27833;SDS011;15200;50.570;7.244;2022-09-17T13:06:09;5.92;;;0.90;;
27833;SDS011;15200;50.570;7.244;2022-09-17T13:08:45;2.47;;;0.93;;
27833;SDS011;15200;50.570;7.244;2022-09-17T13:13:59;3.77;;;0.40;;
27833;SDS011;15200;50.570;7.244;2022-09-17T13:24:26;2.02;;;0.53;;
27833;SDS011;15200;50.570;7.244;2022-09-17T13:26:56;1.67;;;0.70;;
27833;SDS011;15200;50.570;7.244;2022-09-17T13:37:38;1.90;;;0.40;;
27833;SDS011;15200;50.570;7.244;2022-09-17T13:40:19;1.37;;;0.50;;
27833;SDS011;15200;50.570;7.244;2022-09-17T13:42:48;2.65;;;0.50;;
27833;SDS011;15200;50.570;7.244;2022-09-17T13:45:17;1.35;;;0.30;;
27833;SDS011;15200;50.570;7.244;2022-09-17T13:47:51;1.40;;;0.30;;
27833;SDS011;15200;50.570;7.244;2022-09-17T13:50:30;0.93;;;0.28;;
27833;SDS011;15200;50.570;7.244;2022-09-17T13:52:59;1.72;;;0.50;;
27833;SDS011;15200;50.570;7.244;2022-09-17T13:55:34;1.75;;;0.70;;
27833;SDS011;15200;50.570;7.244;2022-09-17T13:58:02;0.65;;;0.20;;
27833;SDS011;15200;50.570;7.244;2022-09-17T14:00:49;0.88;;;0.40;;
27833;SDS011;15200;50.570;7.244;2022-09-17T14:03:45;1.60;;;0.40;;
27833;SDS011;15200;50.570;7.244;2022-09-17T14:05:56;2.72;;;0.50;;
27833;SDS011;15200;50.570;7.244;2022-09-17T14:08:28;1.47;;;0.50;;
27833;SDS011;15200;50.570;7.244;2022-09-17T14:11:00;4.85;;;0.50;;
27833;SDS011;15200;50.570;7.244;2022-09-17T14:13:37;1.98;;;0.40;;
27833;SDS011;15200;50.570;7.244;2022-09-17T14:15:57;2.85;;;0.95;;
27833;SDS011;15200;50.570;7.244;2022-09-17T14:23:44;2.90;;;0.93;;
27833;SDS011;15200;50.570;7.244;2022-09-17T14:26:13;3.35;;;0.50;;
27833;SDS011;15200;50.570;7.244;2022-09-17T14:28:42;2.90;;;0.30;;
27833;SDS011;15200;50.570;7.244;2022-09-17T14:31:09;1.30;;;0.23;;
27833;SDS011;15200;50.570;7.244;2022-09-17T14:33:37;1.60;;;0.40;;
27833;SDS011;15200;50.570;7.244;2022-09-17T14:38:53;2.60;;;0.42;;
27833;SDS011;15200;50.570;7.244;2022-09-17T14:41:22;2.62;;;0.30;;
27833;SDS011;15200;50.570;7.244;2022-09-17T14:44:03;4.28;;;0.60;;
27833;SDS011;15200;50.570;7.244;2022-09-17T14:46:38;1.12;;;0.40;;
27833;SDS011;15200;50.570;7.244;2022-09-17T14:49:12;2.08;;;0.40;;
27833;SDS011;15200;50.570;7.244;2022-09-17T14:51:41;1.12;;;0.30;;
27833;SDS011;15200;50.570;7.244;2022-09-17T14:54:15;0.95;;;0.35;;
27833;SDS011;15200;50.570;7.244;2022-09-17T14:56:52;0.95;;;0.35;;
27833;SDS011;15200;50.570;7.244;2022-09-17T14:59:33;2.58;;;0.53;;
27833;SDS011;15200;50.570;7.244;2022-09-17T15:01:58;0.50;;;0.30;;
27833;SDS011;15200;50.570;7.244;2022-09-17T15:04:26;2.75;;;0.50;;
27833;SDS011;15200;50.570;7.244;2022-09-17T15:07:10;1.20;;;0.57;;
27833;SDS011;15200;50.570;7.244;2022-09-17T15:09:37;3.72;;;0.80;;
27833;SDS011;15200;50.570;7.244;2022-09-17T15:12:05;1.95;;;0.68;;
27833;SDS011;15200;50.570;7.244;2022-09-17T15:14:33;1.87;;;0.55;;
27833;SDS011;15200;50.570;7.244;2022-09-17T15:17:02;6.12;;;1.25;;
27833;SDS011;15200;50.570;7.244;2022-09-17T15:19:51;3.47;;;0.70;;
27833;SDS011;15200;50.570;7.244;2022-09-17T15:22:25;4.40;;;0.50;;
27833;SDS011;15200;50.570;7.244;2022-09-17T15:24:56;4.15;;;1.42;;
27833;SDS011;15200;50.570;7.244;2022-09-17T15:30:08;4.08;;;1.75;;
27833;SDS011;15200;50.570;7.244;2022-09-17T15:32:33;3.33;;;1.40;;
27833;SDS011;15200;50.570;7.244;2022-09-17T15:37:42;4.70;;;1.25;;
27833;SDS011;15200;50.570;7.244;2022-09-17T15:40:23;4.55;;;1.40;;
27833;SDS011;15200;50.570;7.244;2022-09-17T15:42:52;6.28;;;1.50;;
27833;SDS011;15200;50.570;7.244;2022-09-17T15:45:21;4.40;;;0.95;;
27833;SDS011;15200;50.570;7.244;2022-09-17T15:47:52;3.65;;;1.10;;
27833;SDS011;15200;50.570;7.244;2022-09-17T15:50:21;2.52;;;0.75;;
27833;SDS011;15200;50.570;7.244;2022-09-17T15:52:49;2.95;;;1.02;;
27833;SDS011;15200;50.570;7.244;2022-09-17T15:55:30;3.87;;;1.10;;
27833;SDS011;15200;50.570;7.244;2022-09-17T15:57:57;9.73;;;1.80;;
27833;SDS011;15200;50.570;7.244;2022-09-17T16:00:25;6.65;;;1.42;;
27833;SDS011;15200;50.570;7.244;2022-09-17T16:02:52;10.85;;;2.45;;
27833;SDS011;15200;50.570;7.244;2022-09-17T16:07:52;13.00;;;2.15;;
27833;SDS011;15200;50.570;7.244;2022-09-17T16:10:20;5.60;;;1.50;;
27833;SDS011;15200;50.570;7.244;2022-09-17T16:12:50;6.08;;;1.70;;
27833;SDS011;15200;50.570;7.244;2022-09-17T16:15:17;3.20;;;0.98;;
27833;SDS011;15200;50.570;7.244;2022-09-17T16:17:45;4.03;;;0.95;;
27833;SDS011;15200;50.570;7.244;2022-09-17T16:20:17;4.35;;;1.15;;
27833;SDS011;15200;50.570;7.244;2022-09-17T16:22:46;2.83;;;1.00;;
27833;SDS011;15200;50.570;7.244;2022-09-17T16:25:13;4.30;;;0.88;;
27833;SDS011;15200;50.570;7.244;2022-09-17T16:27:42;7.35;;;1.40;;
27833;SDS011;15200;50.570;7.244;2022-09-17T16:30:12;5.00;;;1.55;;
27833;SDS011;15200;50.570;7.244;2022-09-17T16:32:39;3.72;;;1.20;;
27833;SDS011;15200;50.570;7.244;2022-09-17T16:35:07;4.87;;;1.25;;
27833;SDS011;15200;50.570;7.244;2022-09-17T16:37:34;8.33;;;0.80;;
27833;SDS011;15200;50.570;7.244;2022-09-17T16:40:02;4.60;;;0.95;;
27833;SDS011;15200;50.570;7.244;2022-09-17T16:42:30;5.37;;;0.90;;
27833;SDS011;15200;50.570;7.244;2022-09-17T16:44:57;2.40;;;1.10;;
27833;SDS011;15200;50.570;7.244;2022-09-17T16:47:26;5.45;;;1.10;;
27833;SDS011;15200;50.570;7.244;2022-09-17T16:49:54;6.30;;;1.27;;
27833;SDS011;15200;50.570;7.244;2022-09-17T16:52:21;4.00;;;1.20;;
27833;SDS011;15200;50.570;7.244;2022-09-17T16:54:48;3.95;;;1.40;;
27833;SDS011;15200;50.570;7.244;2022-09-17T16:57:16;3.98;;;1.10;;
27833;SDS011;15200;50.570;7.244;2022-09-17T16:59:43;6.08;;;1.37;;
27833;SDS011;15200;50.570;7.244;2022-09-17T17:02:10;6.08;;;1.70;;
27833;SDS011;15200;50.570;7.244;2022-09-17T17:04:37;5.97;;;1.52;;
27833;SDS011;15200;50.570;7.244;2022-09-17T17:07:05;5.78;;;1.20;;
27833;SDS011;15200;50.570;7.244;2022-09-17T17:09:32;5.50;;;1.40;;